createdAt,value
2019-02-27T00:00:36.131Z,95.50
2019-02-27T00:03:09.230Z,95.20
2019-02-27T00:05:41.733Z,95.40
2019-02-27T00:08:13.863Z,95.70
2019-02-27T00:10:45.316Z,96.10
2019-02-27T00:13:16.631Z,95.90
2019-02-27T00:15:48.076Z,95.60
2019-02-27T00:18:23.785Z,95.60
2019-02-27T00:20:54.834Z,95.60
2019-02-27T00:23:27.332Z,95.40
2019-02-27T00:25:58.853Z,95.30
2019-02-27T00:28:30.122Z,95.60
2019-02-27T00:31:04.223Z,95.60
2019-02-27T00:33:35.618Z,95.60
2019-02-27T00:36:06.961Z,95.80
2019-02-27T00:38:39.259Z,95.80
2019-02-27T00:41:12.811Z,95.90
2019-02-27T00:43:43.667Z,96.00
2019-02-27T00:46:14.964Z,96.00
2019-02-27T00:48:46.391Z,96.10
2019-02-27T00:51:18.789Z,96.30
2019-02-27T00:53:51.371Z,96.40
2019-02-27T00:56:22.791Z,96.10
2019-02-27T00:58:54.114Z,96.20
2019-02-27T01:01:25.496Z,96.20
2019-02-27T01:03:59.247Z,96.40
2019-02-27T01:06:29.869Z,96.30
2019-02-27T01:09:03.888Z,96.10
2019-02-27T01:11:37.493Z,96.20
2019-02-27T01:14:09.018Z,96.50
2019-02-27T01:16:40.480Z,97.00
2019-02-27T01:19:11.940Z,97.20
2019-02-27T01:21:43.252Z,97.30
2019-02-27T01:24:17.458Z,97.30
2019-02-27T01:26:49.149Z,97.40
2019-02-27T01:29:20.406Z,97.70
2019-02-27T01:31:51.918Z,97.70
2019-02-27T01:34:23.275Z,97.60
2019-02-27T01:36:54.865Z,97.80
2019-02-27T01:39:27.525Z,97.90
2019-02-27T01:41:59.019Z,97.70
2019-02-27T01:44:30.358Z,97.60
2019-02-27T01:47:02.881Z,97.50
2019-02-27T01:49:34.351Z,97.20
2019-02-27T01:52:05.917Z,97.00
2019-02-27T01:54:38.298Z,97.10
2019-02-27T01:57:09.677Z,97.60
2019-02-27T01:59:41.000Z,97.50
2019-02-27T02:02:12.470Z,97.10
2019-02-27T02:04:44.017Z,97.20
2019-02-27T02:07:15.319Z,97.10
2019-02-27T02:09:46.785Z,97.00
2019-02-27T02:12:24.856Z,97.00
2019-02-27T02:15:06.310Z,97.20
2019-02-27T02:18:26.313Z,97.10
2019-02-27T02:21:24.501Z,97.10
2019-02-27T02:24:28.254Z,97.40
2019-02-27T02:27:25.373Z,97.60
2019-02-27T02:30:29.169Z,97.60
2019-02-27T02:33:29.087Z,97.40
2019-02-27T02:36:42.013Z,97.40
2019-02-27T02:39:55.303Z,97.50
2019-02-27T02:43:06.334Z,97.80
2019-02-27T02:45:56.819Z,97.90
2019-02-27T02:49:06.446Z,97.80
2019-02-27T02:51:42.024Z,98.10
2019-02-27T02:54:58.774Z,98.10
2019-02-27T02:57:57.128Z,98.10
2019-02-27T03:01:01.445Z,97.80
2019-02-27T03:03:49.794Z,97.90
2019-02-27T03:06:47.960Z,97.80
2019-02-27T03:09:48.007Z,97.60
2019-02-27T03:12:52.913Z,98.10
2019-02-27T03:15:37.929Z,98.00
2019-02-27T03:18:29.252Z,97.80
2019-02-27T03:21:16.034Z,97.80
2019-02-27T03:24:18.558Z,98.20
2019-02-27T03:27:11.322Z,98.10
2019-02-27T03:30:05.571Z,97.80
2019-02-27T03:32:50.336Z,97.90
2019-02-27T03:35:35.231Z,97.50
2019-02-27T03:38:59.304Z,97.40
2019-02-27T03:41:59.394Z,97.70
2019-02-27T03:44:55.852Z,97.80
2019-02-27T03:47:33.579Z,97.70
2019-02-27T03:50:24.726Z,98.20
2019-02-27T03:53:24.710Z,98.80
2019-02-27T03:56:26.642Z,98.10
2019-02-27T03:59:08.141Z,97.90
2019-02-27T04:02:08.654Z,98.70
2019-02-27T04:04:44.612Z,98.80
2019-02-27T04:07:44.682Z,99.10
2019-02-27T04:10:16.055Z,99.60
2019-02-27T04:12:51.349Z,99.40
2019-02-27T04:15:20.526Z,99.60
2019-02-27T04:17:52.231Z,99.50
2019-02-27T04:20:23.330Z,99.50
2019-02-27T04:23:11.239Z,99.40
2019-02-27T04:25:39.055Z,99.50
2019-02-27T04:28:10.357Z,99.50
2019-02-27T04:30:41.699Z,99.10
2019-02-27T04:33:13.069Z,98.80
2019-02-27T04:35:45.381Z,99.30
2019-02-27T04:38:16.736Z,98.60
2019-02-27T04:40:48.025Z,98.10
2019-02-27T04:43:19.354Z,98.10
2019-02-27T04:45:50.574Z,98.20
2019-02-27T04:48:21.903Z,98.80
2019-02-27T04:50:53.273Z,98.90
2019-02-27T04:53:24.638Z,98.80
2019-02-27T04:55:56.064Z,99.30
2019-02-27T04:58:27.647Z,99.50
2019-02-27T05:01:18.418Z,99.60
2019-02-27T05:03:51.324Z,99.70
2019-02-27T05:06:22.656Z,99.70
2019-02-27T05:08:54.113Z,99.80
2019-02-27T05:11:26.975Z,99.40
2019-02-27T05:13:58.497Z,99.30
2019-02-27T05:16:29.813Z,99.60
2019-02-27T05:19:03.988Z,99.30
2019-02-27T05:21:34.181Z,99.20
2019-02-27T05:24:07.716Z,99.10
2019-02-27T05:26:39.368Z,98.70
2019-02-27T05:29:10.761Z,98.80
2019-02-27T05:31:42.965Z,98.80
2019-02-27T05:34:14.354Z,98.80
2019-02-27T05:36:45.754Z,99.00
2019-02-27T05:39:17.354Z,99.30
2019-02-27T05:41:53.429Z,99.30
2019-02-27T05:44:36.946Z,98.90
2019-02-27T05:47:13.702Z,98.80
2019-02-27T05:49:45.027Z,99.10
2019-02-27T05:52:16.391Z,99.60
2019-02-27T05:54:47.768Z,99.70
2019-02-27T05:57:21.034Z,99.50
2019-02-27T05:59:52.126Z,99.90
2019-02-27T06:02:23.391Z,99.50
2019-02-27T06:04:56.146Z,99.40
2019-02-27T06:07:28.489Z,99.40
2019-02-27T06:09:59.961Z,99.70
2019-02-27T06:12:31.283Z,99.90
2019-02-27T06:15:02.670Z,99.90
2019-02-27T06:17:43.107Z,99.90
2019-02-27T06:20:08.585Z,99.70
2019-02-27T06:22:40.055Z,99.80
2019-02-27T06:25:21.655Z,99.50
2019-02-27T06:27:49.154Z,99.70
2019-02-27T06:30:22.012Z,99.90
2019-02-27T06:32:53.278Z,99.80
2019-02-27T06:35:24.816Z,99.90
2019-02-27T06:37:56.275Z,99.60
2019-02-27T06:40:27.636Z,99.70
2019-02-27T06:42:59.015Z,99.70
2019-02-27T06:45:30.315Z,99.80
2019-02-27T06:48:01.598Z,99.60
2019-02-27T06:50:32.951Z,99.40
2019-02-27T06:53:04.431Z,99.40
2019-02-27T06:55:35.885Z,99.30
2019-02-27T06:58:07.252Z,99.40
2019-02-27T07:00:38.576Z,99.50
2019-02-27T07:03:09.849Z,99.50
2019-02-27T07:05:41.385Z,99.90
2019-02-27T07:08:12.767Z,99.80
2019-02-27T07:10:44.094Z,99.70
2019-02-27T07:13:15.567Z,99.90
2019-02-27T07:15:48.146Z,99.90
2019-02-27T07:18:20.384Z,99.90
2019-02-27T07:20:51.725Z,99.90
2019-02-27T07:23:45.751Z,99.90
2019-02-27T07:26:18.325Z,99.90
2019-02-27T07:28:49.753Z,99.90
2019-02-27T07:31:23.313Z,99.90
2019-02-27T07:33:54.190Z,99.90
2019-02-27T07:36:27.142Z,99.90
2019-02-27T07:38:58.505Z,99.90
2019-02-27T07:41:29.788Z,99.90
2019-02-27T07:44:01.060Z,99.90
2019-02-27T07:46:32.450Z,99.90
2019-02-27T07:49:03.859Z,99.90
2019-02-27T07:51:35.235Z,99.90
2019-02-27T07:54:06.569Z,99.90
2019-02-27T07:56:37.882Z,99.90
2019-02-27T07:59:09.352Z,99.90
2019-02-27T08:01:43.709Z,99.70
2019-02-27T08:04:13.711Z,99.70
2019-02-27T08:06:45.027Z,99.90
2019-02-27T08:09:16.370Z,99.90
2019-02-27T08:11:47.963Z,99.90
2019-02-27T08:14:19.256Z,99.90
2019-02-27T08:16:50.646Z,99.90
2019-02-27T08:19:22.080Z,99.90
2019-02-27T08:21:53.373Z,99.90
2019-02-27T08:24:24.968Z,99.90
2019-02-27T08:26:56.398Z,99.90
2019-02-27T08:29:27.727Z,99.90
2019-02-27T08:32:01.192Z,99.90
2019-02-27T08:34:32.221Z,99.90
2019-02-27T08:37:03.685Z,99.90
2019-02-27T08:39:36.709Z,99.70
2019-02-27T08:42:08.028Z,99.70
2019-02-27T08:44:39.325Z,99.50
2019-02-27T08:47:10.862Z,99.20
2019-02-27T08:49:42.201Z,99.10
2019-02-27T08:52:16.219Z,99.10
2019-02-27T08:54:46.777Z,98.70
2019-02-27T08:57:18.460Z,98.10
2019-02-27T08:59:49.905Z,98.20
2019-02-27T09:02:24.302Z,98.00
2019-02-27T09:04:55.572Z,98.10
2019-02-27T09:07:26.906Z,97.80
2019-02-27T09:09:58.167Z,97.20
2019-02-27T09:12:29.626Z,97.20
2019-02-27T09:15:00.909Z,96.90
2019-02-27T09:17:32.379Z,96.80
2019-02-27T09:20:04.015Z,96.50
2019-02-27T09:22:36.731Z,96.40
2019-02-27T09:25:11.505Z,96.30
2019-02-27T09:27:42.995Z,96.00
2019-02-27T09:30:30.208Z,96.80
2019-02-27T09:33:01.875Z,96.90
2019-02-27T09:35:38.338Z,96.30
2019-02-27T09:38:08.553Z,95.90
2019-02-27T09:40:39.729Z,95.50
2019-02-27T09:43:11.711Z,95.40
2019-02-27T09:45:46.518Z,95.40
2019-02-27T09:48:19.276Z,95.10
2019-02-27T09:50:50.499Z,94.80
2019-02-27T09:53:21.846Z,94.70
2019-02-27T09:55:54.388Z,94.50
2019-02-27T09:58:26.072Z,94.60
2019-02-27T10:01:13.810Z,93.90
2019-02-27T10:03:45.219Z,93.60
2019-02-27T10:06:16.596Z,94.00
2019-02-27T10:08:47.985Z,93.60
2019-02-27T10:11:21.616Z,93.70
2019-02-27T10:13:52.658Z,93.40
2019-02-27T10:16:24.054Z,93.30
2019-02-27T10:18:55.881Z,93.10
2019-02-27T10:21:27.458Z,92.80
2019-02-27T10:23:58.942Z,93.90
2019-02-27T10:26:30.360Z,92.50
2019-02-27T10:29:01.824Z,92.70
2019-02-27T10:31:33.407Z,92.30
2019-02-27T10:34:04.837Z,91.80
2019-02-27T10:36:39.231Z,91.80
2019-02-27T10:39:09.579Z,91.10
2019-02-27T10:41:41.638Z,90.50
2019-02-27T10:44:13.150Z,87.10
2019-02-27T10:46:44.593Z,87.80
2019-02-27T10:49:15.987Z,83.90
2019-02-27T10:51:47.428Z,86.30
2019-02-27T10:54:18.841Z,85.70
2019-02-27T10:56:50.117Z,85.20
2019-02-27T10:59:22.207Z,84.90
2019-02-27T11:01:54.560Z,84.70
2019-02-27T11:04:25.975Z,85.60
2019-02-27T11:06:58.493Z,86.30
2019-02-27T11:09:30.266Z,83.40
2019-02-27T11:12:01.881Z,82.00
2019-02-27T11:14:33.361Z,81.60
2019-02-27T11:17:04.829Z,81.60
2019-02-27T11:19:36.224Z,81.20
2019-02-27T11:22:07.675Z,84.40
2019-02-27T11:24:39.183Z,82.10
2019-02-27T11:27:10.605Z,80.50
2019-02-27T11:29:41.995Z,79.00
2019-02-27T11:32:13.356Z,81.20
2019-02-27T11:34:45.615Z,77.10
2019-02-27T11:37:18.043Z,78.90
2019-02-27T11:39:49.519Z,76.10
2019-02-27T11:42:21.102Z,74.60
2019-02-27T11:44:53.510Z,74.40
2019-02-27T11:47:24.908Z,75.20
2019-02-27T11:49:57.482Z,73.40
2019-02-27T11:52:29.010Z,76.80
2019-02-27T11:55:00.400Z,72.80
2019-02-27T11:57:31.780Z,74.90
2019-02-27T12:00:04.112Z,75.60
2019-02-27T12:02:37.969Z,71.80
2019-02-27T12:05:13.558Z,68.70
2019-02-27T12:07:45.084Z,68.90
2019-02-27T12:10:23.741Z,66.70
2019-02-27T12:12:59.508Z,67.10
2019-02-27T12:15:28.346Z,69.00
2019-02-27T12:18:01.300Z,65.70
2019-02-27T12:20:33.141Z,65.40
2019-02-27T12:23:07.503Z,64.60
2019-02-27T12:25:39.647Z,63.70
2019-02-27T12:28:11.261Z,62.70
2019-02-27T12:30:42.742Z,60.80
2019-02-27T12:33:14.194Z,59.30
2019-02-27T12:35:47.269Z,59.30
2019-02-27T12:38:18.733Z,59.40
2019-02-27T12:40:50.302Z,59.20
2019-02-27T12:43:21.804Z,58.20
2019-02-27T12:45:53.283Z,58.40
2019-02-27T12:48:24.804Z,55.70
2019-02-27T12:50:56.295Z,53.00
2019-02-27T12:53:27.756Z,57.70
2019-02-27T12:55:59.237Z,53.50
2019-02-27T12:58:30.585Z,54.90
2019-02-27T13:01:02.077Z,53.50
2019-02-27T13:03:33.466Z,54.70
2019-02-27T13:06:04.987Z,50.80
2019-02-27T13:08:36.286Z,52.50
2019-02-27T13:11:08.048Z,53.50
2019-02-27T13:13:40.042Z,51.50
2019-02-27T13:16:14.248Z,49.70
2019-02-27T13:18:46.459Z,47.10
2019-02-27T13:21:20.693Z,51.00
2019-02-27T13:23:51.142Z,48.10
2019-02-27T13:26:22.515Z,47.30
2019-02-27T13:28:53.787Z,51.40
2019-02-27T13:31:26.875Z,47.70
2019-02-27T13:33:58.398Z,45.30
2019-02-27T13:36:31.602Z,47.90
2019-02-27T13:39:03.018Z,48.70
2019-02-27T13:41:36.116Z,49.50
2019-02-27T13:44:08.306Z,47.70
2019-02-27T13:46:39.626Z,42.80
2019-02-27T13:49:13.617Z,46.20
2019-02-27T13:51:44.045Z,46.40
2019-02-27T13:54:15.410Z,44.20
2019-02-27T13:56:46.752Z,40.40
2019-02-27T13:59:19.560Z,42.90
2019-02-27T14:01:51.246Z,41.00
2019-02-27T14:04:22.782Z,40.30
2019-02-27T14:06:54.187Z,42.20
2019-02-27T14:09:25.592Z,39.20
2019-02-27T14:11:58.720Z,42.60
2019-02-27T14:14:30.278Z,41.90
2019-02-27T14:17:02.304Z,42.40
2019-02-27T14:19:33.710Z,39.70
2019-02-27T14:22:07.540Z,43.70
2019-02-27T14:24:38.360Z,40.60
2019-02-27T14:27:12.024Z,41.30
2019-02-27T14:29:43.995Z,41.20
2019-02-27T14:32:15.546Z,40.90
2019-02-27T14:34:47.000Z,41.70
2019-02-27T14:37:18.429Z,43.10
2019-02-27T14:39:50.589Z,40.50
2019-02-27T14:42:25.334Z,40.50
2019-02-27T14:44:56.854Z,38.90
2019-02-27T14:47:28.292Z,37.70
2019-02-27T14:50:00.336Z,37.70
2019-02-27T14:52:33.219Z,37.70
2019-02-27T14:55:06.253Z,38.30
2019-02-27T14:57:37.768Z,38.20
2019-02-27T15:00:25.879Z,38.00
2019-02-27T15:02:57.685Z,37.90
2019-02-27T15:05:29.194Z,40.10
2019-02-27T15:08:00.754Z,39.20
2019-02-27T15:10:32.255Z,38.90
2019-02-27T15:13:03.751Z,39.10
2019-02-27T15:15:35.183Z,40.90
2019-02-27T15:18:06.952Z,39.10
2019-02-27T15:20:41.063Z,38.70
2019-02-27T15:23:13.401Z,43.00
2019-02-27T15:25:44.964Z,40.10
2019-02-27T15:28:16.371Z,39.80
2019-02-27T15:30:47.824Z,38.90
2019-02-27T15:33:22.587Z,36.50
2019-02-27T15:35:55.633Z,39.30
2019-02-27T15:38:27.129Z,40.00
2019-02-27T15:41:02.337Z,40.60
2019-02-27T15:43:32.086Z,42.80
2019-02-27T15:46:04.688Z,42.40
2019-02-27T15:48:40.470Z,40.60
2019-02-27T15:51:09.536Z,44.70
2019-02-27T15:53:41.015Z,44.30
2019-02-27T15:56:12.450Z,41.70
2019-02-27T15:58:43.856Z,46.00
2019-02-27T16:01:15.199Z,46.20
2019-02-27T16:03:46.760Z,43.30
2019-02-27T16:06:19.161Z,42.80
2019-02-27T16:08:50.929Z,44.60
2019-02-27T16:11:22.466Z,44.50
2019-02-27T16:13:54.273Z,44.80
2019-02-27T16:16:25.599Z,45.70
2019-02-27T16:18:57.092Z,46.90
2019-02-27T16:21:28.552Z,48.00
2019-02-27T16:24:00.014Z,47.00
2019-02-27T16:26:31.383Z,48.20
2019-02-27T16:29:02.909Z,50.40
2019-02-27T16:31:34.424Z,49.70
2019-02-27T16:34:06.022Z,49.90
2019-02-27T16:36:37.443Z,51.80
2019-02-27T16:39:08.875Z,52.00
2019-02-27T16:41:41.978Z,52.50
2019-02-27T16:44:13.578Z,53.20
2019-02-27T16:46:45.040Z,55.30
2019-02-27T16:49:16.642Z,55.40
2019-02-27T16:51:47.923Z,58.50
2019-02-27T16:54:19.608Z,59.70
2019-02-27T16:56:51.071Z,59.30
2019-02-27T16:59:22.580Z,59.10
2019-02-27T17:01:54.024Z,59.60
2019-02-27T17:04:25.417Z,60.20
2019-02-27T17:06:56.787Z,57.60
2019-02-27T17:09:30.904Z,56.90
2019-02-27T17:12:04.307Z,58.50
2019-02-27T17:14:35.270Z,59.50
2019-02-27T17:17:06.944Z,60.40
2019-02-27T17:19:38.695Z,58.80
2019-02-27T17:22:11.278Z,56.60
2019-02-27T17:24:42.865Z,55.30
2019-02-27T17:27:16.394Z,56.50
2019-02-27T17:29:47.489Z,56.80
2019-02-27T17:32:21.632Z,57.80
2019-02-27T17:34:53.086Z,58.40
2019-02-27T17:37:24.461Z,60.50
2019-02-27T17:39:55.836Z,63.10
2019-02-27T17:42:27.219Z,63.00
2019-02-27T17:44:58.818Z,63.60
2019-02-27T17:47:31.808Z,64.20
2019-02-27T17:50:03.661Z,64.20
2019-02-27T17:52:36.341Z,64.70
2019-02-27T17:55:11.524Z,66.40
2019-02-27T17:57:42.952Z,65.50
2019-02-27T18:00:33.353Z,65.30
2019-02-27T18:03:05.830Z,66.40
2019-02-27T18:05:38.399Z,67.30
2019-02-27T18:08:09.859Z,68.10
2019-02-27T18:10:44.935Z,69.00
2019-02-27T18:13:16.465Z,70.50
2019-02-27T18:15:47.847Z,71.60
2019-02-27T18:18:19.731Z,73.00
2019-02-27T18:21:50.723Z,73.40
2019-02-27T18:24:34.293Z,73.00
2019-02-27T18:26:58.701Z,74.90
2019-02-27T18:29:34.526Z,75.20
2019-02-27T18:32:06.673Z,74.50
2019-02-27T18:34:42.497Z,75.40
2019-02-27T18:37:15.637Z,77.00
2019-02-27T18:39:47.277Z,75.80
2019-02-27T18:42:20.560Z,76.70
2019-02-27T18:44:52.626Z,77.50
2019-02-27T18:47:25.631Z,78.40
2019-02-27T18:49:57.369Z,77.60
2019-02-27T18:52:29.036Z,78.30
2019-02-27T18:55:00.597Z,79.80
2019-02-27T18:57:40.206Z,80.20
2019-02-27T19:00:15.429Z,80.20
2019-02-27T19:02:47.281Z,80.50
2019-02-27T19:05:18.878Z,81.50
2019-02-27T19:07:53.876Z,81.70
2019-02-27T19:10:24.318Z,81.70
2019-02-27T19:13:00.746Z,81.60
2019-02-27T19:15:29.313Z,82.00
2019-02-27T19:18:03.648Z,82.00
2019-02-27T19:20:46.823Z,84.40
2019-02-27T19:23:18.557Z,84.20
2019-02-27T19:25:50.194Z,83.50
2019-02-27T19:28:24.835Z,84.00
2019-02-27T19:30:56.253Z,83.90
2019-02-27T19:33:28.182Z,83.70
2019-02-27T19:36:07.209Z,84.10
2019-02-27T19:38:38.756Z,84.50
2019-02-27T19:41:10.352Z,85.00
2019-02-27T19:43:41.949Z,84.10
2019-02-27T19:46:15.400Z,84.30
2019-02-27T19:48:47.053Z,84.10
2019-02-27T19:51:20.183Z,84.10
2019-02-27T19:53:51.950Z,83.10
2019-02-27T19:56:23.592Z,82.20
2019-02-27T19:58:56.450Z,82.40
2019-02-27T20:01:28.389Z,82.80
2019-02-27T20:04:02.863Z,83.40
2019-02-27T20:06:34.869Z,83.80
2019-02-27T20:09:07.658Z,83.90
2019-02-27T20:11:43.735Z,83.80
2019-02-27T20:14:15.308Z,84.40
2019-02-27T20:16:46.948Z,83.60
2019-02-27T20:19:22.372Z,82.90
2019-02-27T20:21:52.113Z,82.40
2019-02-27T20:24:23.949Z,82.70
2019-02-27T20:26:55.859Z,82.30
2019-02-27T20:29:27.473Z,82.30
2019-02-27T20:32:01.721Z,83.30
2019-02-27T20:34:32.982Z,82.50
2019-02-27T20:37:10.801Z,83.10
2019-02-27T20:39:42.507Z,83.00
2019-02-27T20:42:14.448Z,84.40
2019-02-27T20:44:46.108Z,85.40
2019-02-27T20:47:17.637Z,87.00
2019-02-27T20:49:55.224Z,86.20
2019-02-27T20:52:26.864Z,86.80
2019-02-27T20:54:59.895Z,86.80
2019-02-27T20:57:31.629Z,87.10
2019-02-27T21:00:04.960Z,86.70
2019-02-27T21:02:36.891Z,87.10
2019-02-27T21:05:11.981Z,86.90
2019-02-27T21:07:43.666Z,87.50
2019-02-27T21:10:21.973Z,86.90
2019-02-27T21:12:54.484Z,86.90
2019-02-27T21:15:26.066Z,86.80
2019-02-27T21:17:58.494Z,86.60
2019-02-27T21:20:30.367Z,86.50
2019-02-27T21:23:01.746Z,86.30
2019-02-27T21:25:33.301Z,87.10
2019-02-27T21:28:07.664Z,88.40
2019-02-27T21:30:38.909Z,88.30
2019-02-27T21:33:11.136Z,88.30
2019-02-27T21:35:44.684Z,87.90
2019-02-27T21:38:16.783Z,88.00
2019-02-27T21:40:48.950Z,88.40
2019-02-27T21:43:25.224Z,88.80
2019-02-27T21:45:54.392Z,89.10
2019-02-27T21:48:26.744Z,88.90
2019-02-27T21:50:58.945Z,89.70
2019-02-27T21:53:30.364Z,90.00
2019-02-27T21:56:01.695Z,89.80
2019-02-27T21:58:33.070Z,89.30
2019-02-27T22:04:27.136Z,90.00
2019-02-27T22:06:59.519Z,89.90
2019-02-27T22:09:31.141Z,89.80
2019-02-27T22:12:02.638Z,90.00
2019-02-27T22:14:34.117Z,90.10
2019-02-27T22:17:05.962Z,90.10
2019-02-27T22:19:37.756Z,90.00
2019-02-27T22:22:09.235Z,89.90
2019-02-27T22:24:40.729Z,89.50
2019-02-27T22:27:12.657Z,88.90
2019-02-27T22:29:45.748Z,88.80
2019-02-27T22:32:17.220Z,89.00
2019-02-27T22:34:48.554Z,89.30
2019-02-27T22:37:20.162Z,89.40
2019-02-27T22:39:53.117Z,88.70
2019-02-27T22:42:25.509Z,88.70
2019-02-27T22:44:56.872Z,88.70
2019-02-27T22:47:28.155Z,89.00
2019-02-27T22:49:59.513Z,89.00
2019-02-27T22:52:31.100Z,89.30
2019-02-27T22:55:02.459Z,89.30
2019-02-27T22:57:33.828Z,89.90
2019-02-27T23:00:27.702Z,90.00
2019-02-27T23:03:01.994Z,89.70
2019-02-27T23:05:35.209Z,89.80
2019-02-27T23:08:06.631Z,90.10
2019-02-27T23:10:37.895Z,90.10
2019-02-27T23:13:12.656Z,90.20
2019-02-27T23:15:43.831Z,90.60
2019-02-27T23:18:15.318Z,90.50
2019-02-27T23:20:55.349Z,90.50
2019-02-27T23:23:25.740Z,90.80
2019-02-27T23:25:57.249Z,90.70
2019-02-27T23:28:28.782Z,90.80
2019-02-27T23:31:00.251Z,91.20
2019-02-27T23:33:35.844Z,91.60
2019-02-27T23:36:04.980Z,91.90
2019-02-27T23:38:36.351Z,91.90
2019-02-27T23:41:07.776Z,92.20
2019-02-27T23:43:39.208Z,92.10
2019-02-27T23:46:10.634Z,92.10
2019-02-27T23:48:44.781Z,92.10
2019-02-27T23:51:16.986Z,92.10
2019-02-27T23:53:48.514Z,92.30
2019-02-27T23:56:20.659Z,92.20
2019-02-27T23:58:52.161Z,92.30
